createdAt,value
2017-06-18T00:01:05.772Z,74.80
2017-06-18T00:03:33.294Z,74.90
2017-06-18T00:06:01.567Z,74.60
2017-06-18T00:08:29.076Z,74.60
2017-06-18T00:10:56.599Z,75.00
2017-06-18T00:13:24.867Z,74.70
2017-06-18T00:15:53.126Z,75.80
2017-06-18T00:18:20.648Z,75.10
2017-06-18T00:20:48.146Z,74.90
2017-06-18T00:23:15.652Z,74.80
2017-06-18T00:25:43.179Z,74.90
2017-06-18T00:28:10.674Z,74.60
2017-06-18T00:30:38.179Z,74.60
2017-06-18T00:33:05.699Z,74.60
2017-06-18T00:35:33.203Z,75.10
2017-06-18T00:38:00.706Z,75.20
2017-06-18T00:40:28.236Z,75.50
2017-06-18T00:42:55.739Z,75.40
2017-06-18T00:45:23.246Z,75.70
2017-06-18T00:47:51.539Z,75.60
2017-06-18T00:50:19.039Z,75.60
2017-06-18T00:52:46.538Z,75.70
2017-06-18T00:55:14.120Z,76.20
2017-06-18T00:57:41.684Z,76.10
2017-06-18T01:00:09.187Z,76.60
2017-06-18T01:02:36.711Z,77.10
2017-06-18T01:05:04.255Z,76.60
2017-06-18T01:07:31.763Z,76.30
2017-06-18T01:09:59.303Z,76.20
2017-06-18T01:12:26.806Z,76.50
2017-06-18T01:14:55.075Z,77.00
2017-06-18T01:17:23.367Z,77.40
2017-06-18T01:19:51.663Z,77.90
2017-06-18T01:22:19.219Z,77.90
2017-06-18T01:24:46.781Z,77.20
2017-06-18T01:27:14.286Z,76.90
2017-06-18T01:29:41.787Z,77.50
2017-06-18T01:32:09.311Z,77.50
2017-06-18T01:34:36.815Z,77.30
2017-06-18T01:37:04.335Z,77.50
2017-06-18T01:39:31.927Z,77.60
2017-06-18T01:41:59.422Z,77.80
2017-06-18T01:44:26.948Z,78.40
2017-06-18T01:46:54.503Z,77.60
2017-06-18T01:49:22.063Z,77.90
2017-06-18T01:51:49.619Z,77.10
2017-06-18T01:54:17.123Z,78.00
2017-06-18T01:56:44.759Z,78.30
2017-06-18T01:59:12.282Z,78.60
2017-06-18T02:01:39.778Z,78.70
2017-06-18T02:04:07.279Z,78.40
2017-06-18T02:06:34.809Z,79.50
2017-06-18T02:09:02.307Z,79.20
2017-06-18T02:11:30.594Z,78.40
2017-06-18T02:13:58.131Z,78.40
2017-06-18T02:16:25.639Z,78.40
2017-06-18T02:18:53.138Z,78.20
2017-06-18T02:21:20.747Z,77.80
2017-06-18T02:23:48.259Z,77.60
2017-06-18T02:26:15.859Z,79.20
2017-06-18T02:28:43.386Z,78.40
2017-06-18T02:31:11.655Z,78.70
2017-06-18T02:33:39.255Z,78.10
2017-06-18T02:36:06.786Z,78.60
2017-06-18T02:38:35.060Z,77.80
2017-06-18T02:41:03.363Z,78.30
2017-06-18T02:43:30.886Z,78.30
2017-06-18T02:45:58.407Z,78.10
2017-06-18T02:48:25.947Z,77.50
2017-06-18T02:50:53.483Z,77.80
2017-06-18T02:53:21.059Z,77.60
2017-06-18T02:55:48.563Z,77.50
2017-06-18T02:58:16.091Z,78.20
2017-06-18T03:00:43.636Z,78.80
2017-06-18T03:03:11.139Z,78.60
2017-06-18T03:05:38.663Z,78.20
2017-06-18T03:08:06.180Z,78.90
2017-06-18T03:10:34.451Z,79.70
2017-06-18T03:13:38.330Z,79.70
2017-06-18T03:16:05.827Z,80.40
2017-06-18T03:18:34.095Z,81.20
2017-06-18T03:21:07.330Z,81.10
2017-06-18T03:23:51.518Z,81.30
2017-06-18T03:26:19.042Z,81.60
2017-06-18T03:28:46.547Z,81.70
2017-06-18T03:31:14.052Z,81.60
2017-06-18T03:33:41.579Z,81.80
2017-06-18T03:36:09.847Z,82.50
2017-06-18T03:38:38.123Z,82.70
2017-06-18T03:41:06.430Z,82.30
2017-06-18T03:43:33.934Z,82.40
2017-06-18T03:46:01.436Z,82.40
2017-06-18T03:48:28.963Z,82.50
2017-06-18T03:50:56.467Z,82.40
2017-06-18T03:53:23.971Z,82.50
2017-06-18T03:55:51.491Z,82.70
2017-06-18T03:58:18.990Z,82.30
2017-06-18T04:00:46.491Z,82.10
2017-06-18T04:03:14.035Z,82.60
2017-06-18T04:05:42.304Z,82.70
2017-06-18T04:08:09.806Z,82.70
2017-06-18T04:10:37.350Z,82.90
2017-06-18T04:13:04.855Z,83.10
2017-06-18T04:15:32.359Z,83.10
2017-06-18T04:17:59.886Z,82.90
2017-06-18T04:20:27.387Z,83.10
2017-06-18T04:22:54.887Z,83.70
2017-06-18T04:25:22.406Z,83.10
2017-06-18T04:27:49.910Z,81.70
2017-06-18T04:30:17.411Z,76.80
2017-06-18T04:32:44.942Z,72.10
2017-06-18T04:35:13.207Z,69.50
2017-06-18T04:37:40.711Z,69.20
2017-06-18T04:40:08.250Z,70.70
2017-06-18T04:42:35.754Z,71.60
2017-06-18T04:45:03.256Z,71.80
2017-06-18T04:47:31.548Z,73.60
2017-06-18T04:49:59.051Z,73.60
2017-06-18T04:52:26.552Z,74.80
2017-06-18T04:54:54.083Z,74.50
2017-06-18T04:57:21.599Z,75.10
2017-06-18T04:59:49.104Z,75.70
2017-06-18T05:02:16.639Z,76.60
2017-06-18T05:04:44.148Z,76.70
2017-06-18T05:07:11.655Z,77.20
2017-06-18T05:09:39.181Z,77.60
2017-06-18T05:12:06.687Z,77.30
2017-06-18T05:14:34.191Z,77.20
2017-06-18T05:17:01.719Z,78.10
2017-06-18T05:19:29.987Z,76.60
2017-06-18T05:21:57.494Z,77.10
2017-06-18T05:24:25.035Z,76.40
2017-06-18T05:26:52.542Z,71.50
2017-06-18T05:29:20.043Z,69.70
2017-06-18T05:31:47.586Z,71.00
2017-06-18T05:34:15.858Z,72.50
2017-06-18T05:36:43.368Z,72.30
2017-06-18T05:39:10.895Z,72.40
2017-06-18T05:41:38.402Z,73.10
2017-06-18T05:44:05.912Z,73.10
2017-06-18T05:46:33.435Z,72.30
2017-06-18T05:49:00.934Z,72.50
2017-06-18T05:51:28.439Z,71.90
2017-06-18T05:53:55.971Z,70.60
2017-06-18T05:56:23.478Z,70.00
2017-06-18T05:58:50.985Z,71.00
2017-06-18T06:01:18.511Z,70.40
2017-06-18T06:03:46.790Z,71.00
2017-06-18T06:06:14.295Z,71.00
2017-06-18T06:08:41.840Z,71.70
2017-06-18T06:11:09.347Z,71.30
2017-06-18T06:13:36.846Z,70.30
2017-06-18T06:16:04.375Z,69.90
2017-06-18T06:18:31.879Z,70.30
2017-06-18T06:20:59.378Z,71.60
2017-06-18T06:23:26.903Z,69.20
2017-06-18T06:25:54.416Z,69.20
2017-06-18T06:28:21.919Z,67.40
2017-06-18T06:30:49.447Z,67.60
2017-06-18T06:33:16.961Z,65.60
2017-06-18T06:35:44.463Z,66.30
2017-06-18T06:38:11.992Z,65.70
2017-06-18T06:40:40.262Z,64.20
2017-06-18T06:43:07.766Z,63.50
2017-06-18T06:45:35.290Z,63.00
2017-06-18T06:48:03.563Z,58.10
2017-06-18T06:50:31.071Z,58.00
2017-06-18T06:52:58.594Z,59.70
2017-06-18T06:55:26.863Z,59.40
2017-06-18T06:57:54.372Z,59.40
2017-06-18T07:00:21.921Z,59.60
2017-06-18T07:02:49.419Z,59.60
2017-06-18T07:05:16.924Z,59.40
2017-06-18T07:07:44.478Z,59.10
2017-06-18T07:10:11.979Z,57.80
2017-06-18T07:12:39.483Z,58.80
2017-06-18T07:15:07.008Z,59.20
2017-06-18T07:17:34.507Z,59.90
2017-06-18T07:20:02.011Z,61.00
2017-06-18T07:22:29.531Z,60.70
2017-06-18T07:24:57.043Z,62.40
2017-06-18T07:27:24.543Z,62.70
2017-06-18T07:29:52.080Z,62.10
2017-06-18T07:32:19.583Z,62.80
2017-06-18T07:34:47.091Z,61.40
2017-06-18T07:37:14.618Z,58.00
2017-06-18T07:39:42.123Z,56.20
2017-06-18T07:42:09.628Z,55.70
2017-06-18T07:44:37.147Z,53.20
2017-06-18T07:47:04.651Z,52.30
2017-06-18T07:49:32.175Z,51.60
2017-06-18T07:51:59.679Z,54.00
2017-06-18T07:54:27.181Z,52.40
2017-06-18T07:56:54.703Z,49.90
2017-06-18T07:59:22.973Z,48.40
2017-06-18T08:01:50.503Z,48.90
2017-06-18T08:04:18.004Z,49.70
2017-06-18T08:06:45.502Z,49.70
2017-06-18T08:09:13.031Z,48.60
2017-06-18T08:11:41.299Z,49.70
2017-06-18T08:14:09.566Z,47.70
2017-06-18T08:16:37.860Z,50.30
2017-06-18T08:19:06.127Z,47.20
2017-06-18T08:21:34.396Z,48.50
2017-06-18T08:24:01.922Z,48.50
2017-06-18T08:26:29.418Z,48.60
2017-06-18T08:28:56.923Z,49.00
2017-06-18T08:31:24.462Z,49.10
2017-06-18T08:33:51.972Z,50.10
2017-06-18T08:36:19.499Z,50.60
2017-06-18T08:38:47.005Z,47.80
2017-06-18T08:41:14.510Z,50.00
2017-06-18T08:43:42.030Z,47.80
2017-06-18T08:46:10.295Z,49.20
2017-06-18T08:48:37.796Z,49.20
2017-06-18T08:51:05.319Z,50.10
2017-06-18T08:53:33.587Z,47.10
2017-06-18T08:56:01.861Z,44.30
2017-06-18T09:01:06.139Z,44.30
2017-06-18T09:03:33.661Z,42.60
2017-06-18T09:06:01.928Z,47.40
2017-06-18T09:08:29.428Z,47.40
2017-06-18T09:10:56.947Z,47.30
2017-06-18T09:13:24.459Z,49.10
2017-06-18T09:15:51.974Z,47.00
2017-06-18T09:18:20.243Z,46.80
2017-06-18T09:20:48.531Z,48.00
2017-06-18T09:23:16.036Z,48.00
2017-06-18T09:25:43.534Z,49.30
2017-06-18T09:28:11.823Z,44.00
2017-06-18T09:30:39.346Z,44.00
2017-06-18T09:33:06.842Z,43.20
2017-06-18T09:35:34.368Z,43.60
2017-06-18T09:38:01.876Z,44.20
2017-06-18T09:40:29.379Z,42.20
2017-06-18T09:42:56.906Z,42.90
2017-06-18T09:45:24.415Z,41.70
2017-06-18T09:47:52.678Z,41.00
2017-06-18T09:50:20.190Z,41.00
2017-06-18T09:52:47.696Z,41.20
2017-06-18T09:55:15.219Z,38.70
2017-06-18T09:57:42.719Z,38.50
2017-06-18T10:00:10.226Z,39.70
2017-06-18T10:02:37.747Z,38.70
2017-06-18T10:05:06.011Z,42.20
2017-06-18T10:07:33.511Z,42.20
2017-06-18T10:10:01.028Z,43.80
2017-06-18T10:12:28.527Z,44.30
2017-06-18T10:14:56.054Z,44.90
2017-06-18T10:17:24.324Z,42.60
2017-06-18T10:19:52.590Z,42.70
2017-06-18T10:22:20.180Z,42.70
2017-06-18T10:24:47.675Z,41.50
2017-06-18T10:27:15.180Z,45.00
2017-06-18T10:29:43.476Z,43.00
2017-06-18T10:32:10.974Z,43.00
2017-06-18T10:34:38.479Z,44.80
2017-06-18T10:37:06.000Z,44.50
2017-06-18T10:39:33.931Z,39.20
2017-06-18T10:42:01.451Z,43.20
2017-06-18T10:44:28.960Z,41.10
2017-06-18T10:46:56.478Z,40.40
2017-06-18T10:49:23.978Z,39.10
2017-06-18T10:51:51.483Z,43.00
2017-06-18T10:54:19.001Z,40.80
2017-06-18T10:56:46.503Z,39.50
2017-06-18T10:59:14.023Z,39.90
2017-06-18T11:01:41.523Z,39.70
2017-06-18T11:04:09.032Z,40.60
2017-06-18T11:06:36.551Z,40.10
2017-06-18T11:09:04.067Z,43.40
2017-06-18T11:11:31.571Z,40.70
2017-06-18T11:13:59.096Z,40.80
2017-06-18T11:16:26.594Z,42.50
2017-06-18T11:18:54.099Z,42.30
2017-06-18T11:21:21.622Z,44.20
2017-06-18T11:23:49.124Z,42.40
2017-06-18T11:26:16.639Z,41.80
2017-06-18T11:28:44.146Z,39.30
2017-06-18T11:31:11.648Z,41.70
2017-06-18T11:33:39.167Z,40.40
2017-06-18T11:36:06.672Z,38.60
2017-06-18T11:38:34.170Z,39.90
2017-06-18T11:41:01.691Z,39.60
2017-06-18T11:43:29.191Z,38.80
2017-06-18T11:45:56.715Z,40.80
2017-06-18T11:48:24.210Z,41.80
2017-06-18T11:50:51.711Z,40.50
2017-06-18T11:53:19.231Z,37.70
2017-06-18T11:55:46.734Z,39.50
2017-06-18T11:58:14.247Z,44.50
2017-06-18T12:00:41.751Z,37.90
2017-06-18T12:03:09.246Z,37.90
2017-06-18T12:05:36.764Z,37.90
2017-06-18T12:08:04.267Z,40.20
2017-06-18T12:10:31.795Z,39.40
2017-06-18T12:12:59.290Z,36.70
2017-06-18T12:15:26.786Z,39.20
2017-06-18T12:17:54.304Z,37.10
2017-06-18T12:20:21.802Z,37.20
2017-06-18T12:22:49.327Z,40.00
2017-06-18T12:25:16.830Z,40.00
2017-06-18T12:27:44.332Z,36.60
2017-06-18T12:30:11.851Z,39.10
2017-06-18T12:32:39.355Z,38.60
2017-06-18T12:35:06.879Z,37.40
2017-06-18T12:37:34.378Z,35.80
2017-06-18T12:40:02.650Z,37.20
2017-06-18T12:42:30.167Z,37.30
2017-06-18T12:44:57.667Z,39.10
2017-06-18T12:47:25.959Z,37.40
2017-06-18T12:49:54.227Z,40.10
2017-06-18T12:52:22.495Z,39.40
2017-06-18T12:54:50.014Z,39.40
2017-06-18T12:57:17.516Z,37.40
2017-06-18T12:59:45.048Z,36.30
2017-06-18T13:02:12.542Z,41.10
2017-06-18T13:04:40.039Z,39.90
2017-06-18T13:07:07.557Z,37.10
2017-06-18T13:09:35.093Z,36.90
2017-06-18T13:12:02.615Z,38.00
2017-06-18T13:14:30.110Z,37.60
2017-06-18T13:16:57.612Z,36.70
2017-06-18T13:19:25.135Z,40.20
2017-06-18T13:21:52.640Z,37.00
2017-06-18T13:24:20.162Z,39.70
2017-06-18T13:26:48.436Z,36.80
2017-06-18T13:29:16.698Z,40.10
2017-06-18T13:31:44.992Z,38.80
2017-06-18T13:34:13.264Z,36.10
2017-06-18T13:36:41.555Z,35.90
2017-06-18T13:39:09.055Z,35.90
2017-06-18T13:41:36.550Z,37.20
2017-06-18T13:44:04.067Z,37.40
2017-06-18T13:46:31.566Z,37.60
2017-06-18T13:48:59.086Z,40.00
2017-06-18T13:51:26.586Z,36.70
2017-06-18T13:53:54.084Z,36.20
2017-06-18T13:56:21.616Z,39.00
2017-06-18T13:58:49.118Z,35.90
2017-06-18T14:01:16.642Z,36.60
2017-06-18T14:03:44.152Z,41.10
2017-06-18T14:06:11.657Z,37.20
2017-06-18T14:08:39.178Z,38.10
2017-06-18T14:11:06.678Z,37.10
2017-06-18T14:13:34.207Z,37.50
2017-06-18T14:16:02.481Z,36.50
2017-06-18T14:18:29.988Z,36.60
2017-06-18T14:20:57.511Z,39.10
2017-06-18T14:23:25.779Z,39.20
2017-06-18T14:25:54.076Z,36.80
2017-06-18T14:28:21.582Z,36.80
2017-06-18T14:30:49.088Z,37.40
2017-06-18T14:33:16.607Z,40.00
2017-06-18T14:35:44.116Z,40.20
2017-06-18T14:38:11.643Z,39.10
2017-06-18T14:40:39.151Z,40.90
2017-06-18T14:43:06.651Z,40.20
2017-06-18T14:45:34.172Z,38.90
2017-06-18T14:48:01.674Z,39.90
2017-06-18T14:50:29.971Z,37.60
2017-06-18T14:52:57.475Z,37.00
2017-06-18T14:55:24.984Z,37.70
2017-06-18T14:57:52.503Z,39.10
2017-06-18T15:00:20.010Z,40.10
2017-06-18T15:02:47.539Z,41.70
2017-06-18T15:05:15.044Z,40.70
2017-06-18T15:07:42.542Z,39.10
2017-06-18T15:10:10.063Z,39.20
2017-06-18T15:12:37.567Z,39.60
2017-06-18T15:15:05.087Z,40.10
2017-06-18T15:17:32.596Z,40.20
2017-06-18T15:20:00.099Z,42.40
2017-06-18T15:22:27.619Z,39.50
2017-06-18T15:24:55.124Z,41.10
2017-06-18T15:27:22.648Z,39.80
2017-06-18T15:29:50.159Z,38.90
2017-06-18T15:32:17.659Z,40.50
2017-06-18T15:34:45.183Z,38.60
2017-06-18T15:37:12.683Z,38.00
2017-06-18T15:39:40.207Z,38.80
2017-06-18T15:42:07.710Z,38.60
2017-06-18T15:44:35.211Z,38.40
2017-06-18T15:47:02.730Z,40.50
2017-06-18T15:49:30.239Z,41.60
2017-06-18T15:51:57.768Z,41.10
2017-06-18T15:54:25.272Z,40.50
2017-06-18T15:56:53.539Z,40.90
2017-06-18T15:59:21.827Z,40.00
2017-06-18T16:01:50.086Z,41.20
2017-06-18T16:04:17.610Z,41.20
2017-06-18T16:06:45.116Z,40.50
2017-06-18T16:09:13.388Z,41.80
2017-06-18T16:11:41.683Z,42.30
2017-06-18T16:14:09.207Z,42.30
2017-06-18T16:16:36.737Z,41.10
2017-06-18T16:19:04.240Z,41.80
2017-06-18T16:21:32.511Z,42.50
2017-06-18T16:24:00.800Z,40.40
2017-06-18T16:26:29.075Z,42.10
2017-06-18T16:28:57.363Z,42.00
2017-06-18T16:31:24.868Z,42.00
2017-06-18T16:33:52.416Z,40.70
2017-06-18T16:36:19.939Z,41.60
2017-06-18T16:38:47.442Z,44.50
2017-06-18T16:41:14.973Z,41.50
2017-06-18T16:43:42.474Z,42.10
2017-06-18T16:46:09.974Z,42.00
2017-06-18T16:48:37.492Z,40.00
2017-06-18T16:51:04.990Z,41.50
2017-06-18T16:53:32.562Z,40.30
2017-06-18T16:56:00.062Z,41.40
2017-06-18T16:58:27.559Z,41.80
2017-06-18T17:00:55.080Z,41.40
2017-06-18T17:03:22.574Z,41.60
2017-06-18T17:05:50.100Z,40.40
2017-06-18T17:08:17.597Z,40.80
2017-06-18T17:10:45.099Z,41.10
2017-06-18T17:13:12.728Z,44.00
2017-06-18T17:15:40.228Z,43.20
2017-06-18T17:18:07.723Z,43.40
2017-06-18T17:20:35.267Z,41.30
2017-06-18T17:23:02.762Z,42.60
2017-06-18T17:25:30.263Z,42.00
2017-06-18T17:27:57.786Z,43.00
2017-06-18T17:30:25.288Z,44.20
2017-06-18T17:32:52.792Z,42.30
2017-06-18T17:35:20.315Z,43.70
2017-06-18T17:37:48.583Z,42.20
2017-06-18T17:40:16.851Z,43.10
2017-06-18T17:42:44.372Z,42.60
2017-06-18T17:45:11.863Z,42.90
2017-06-18T17:47:39.358Z,43.30
2017-06-18T17:50:06.879Z,43.90
2017-06-18T17:52:34.385Z,44.30
2017-06-18T17:55:01.888Z,43.00
2017-06-18T17:57:29.411Z,43.90
2017-06-18T17:59:56.913Z,44.00
2017-06-18T18:02:24.421Z,43.60
2017-06-18T18:04:51.950Z,44.60
2017-06-18T18:07:20.219Z,45.00
2017-06-18T18:09:47.734Z,45.00
2017-06-18T18:12:15.279Z,44.00
2017-06-18T18:14:42.779Z,44.70
2017-06-18T18:17:10.283Z,45.50
2017-06-18T18:19:37.807Z,43.80
2017-06-18T18:22:06.079Z,44.90
2017-06-18T18:24:33.584Z,44.70
2017-06-18T18:27:01.102Z,45.00
2017-06-18T18:29:28.608Z,43.80
2017-06-18T18:31:56.127Z,44.40
2017-06-18T18:34:24.400Z,45.40
2017-06-18T18:36:52.678Z,46.10
2017-06-18T18:39:20.203Z,46.10
2017-06-18T18:41:47.698Z,47.00
2017-06-18T18:44:15.199Z,46.60
2017-06-18T18:46:42.723Z,45.40
2017-06-18T18:49:10.228Z,45.40
2017-06-18T18:51:37.722Z,45.50
2017-06-18T18:54:05.238Z,46.40
2017-06-18T18:56:32.740Z,46.80
2017-06-18T18:59:00.251Z,46.60
2017-06-18T19:01:27.775Z,47.20
2017-06-18T19:03:55.291Z,47.00
2017-06-18T19:06:22.795Z,46.70
2017-06-18T19:08:50.332Z,48.40
2017-06-18T19:11:17.831Z,47.80
2017-06-18T19:13:45.335Z,49.70
2017-06-18T19:16:12.863Z,48.40
2017-06-18T19:18:40.367Z,49.30
2017-06-18T19:21:07.867Z,48.90
2017-06-18T19:23:35.395Z,49.10
2017-06-18T19:26:02.899Z,49.50
2017-06-18T19:28:30.403Z,49.80
2017-06-18T19:30:58.684Z,49.90
2017-06-18T19:33:26.183Z,49.80
2017-06-18T19:35:53.719Z,50.70
2017-06-18T19:38:21.223Z,50.90
2017-06-18T19:40:48.719Z,52.90
2017-06-18T19:43:16.264Z,51.30
2017-06-18T19:45:44.539Z,52.00
2017-06-18T19:48:12.042Z,51.90
2017-06-18T19:50:39.562Z,51.00
2017-06-18T19:53:07.827Z,53.50
2017-06-18T19:55:35.367Z,53.40
2017-06-18T19:58:02.871Z,51.30
2017-06-18T20:00:30.366Z,50.90
2017-06-18T20:02:57.887Z,51.20
2017-06-18T20:05:25.391Z,51.40
2017-06-18T20:07:52.891Z,51.90
2017-06-18T20:10:20.424Z,53.10
2017-06-18T20:12:47.928Z,52.40
2017-06-18T20:15:15.431Z,51.80
2017-06-18T20:17:42.959Z,52.30
2017-06-18T20:20:10.464Z,52.30
2017-06-18T20:22:38.736Z,52.30
2017-06-18T20:25:06.260Z,52.30
2017-06-18T20:27:33.762Z,52.70
2017-06-18T20:30:01.259Z,53.20
2017-06-18T20:32:28.787Z,53.50
2017-06-18T20:34:56.284Z,53.10
2017-06-18T20:37:23.783Z,53.70
2017-06-18T20:39:51.308Z,53.50
2017-06-18T20:42:18.813Z,53.60
2017-06-18T20:44:46.314Z,53.60
2017-06-18T20:47:13.839Z,54.90
2017-06-18T20:49:41.350Z,54.40
2017-06-18T20:52:08.851Z,54.60
2017-06-18T20:54:37.143Z,55.00
2017-06-18T20:57:04.638Z,54.80
2017-06-18T20:59:32.134Z,55.30
2017-06-18T21:01:59.655Z,56.20
2017-06-18T21:04:27.155Z,56.00
2017-06-18T21:06:54.661Z,55.80
2017-06-18T21:09:22.190Z,56.80
2017-06-18T21:11:49.694Z,57.80
2017-06-18T21:14:17.195Z,58.40
2017-06-18T21:16:44.719Z,58.50
2017-06-18T21:19:12.219Z,59.10
2017-06-18T21:21:39.723Z,58.90
2017-06-18T21:24:07.248Z,58.50
2017-06-18T21:26:34.747Z,58.50
2017-06-18T21:29:02.238Z,59.80
2017-06-18T21:31:29.763Z,60.10
2017-06-18T21:33:57.308Z,60.30
2017-06-18T21:36:24.823Z,59.60
2017-06-18T21:38:52.342Z,61.40
2017-06-18T21:41:19.838Z,63.60
2017-06-18T21:43:47.335Z,61.90
2017-06-18T21:46:14.871Z,61.60
2017-06-18T21:48:42.379Z,60.20
2017-06-18T21:51:09.875Z,61.00
2017-06-18T21:53:37.398Z,61.70
2017-06-18T21:56:04.899Z,62.10
2017-06-18T21:58:32.404Z,64.60
2017-06-18T22:00:59.927Z,63.70
2017-06-18T22:03:27.431Z,61.40
2017-06-18T22:05:54.928Z,62.10
2017-06-18T22:08:22.449Z,64.30
2017-06-18T22:10:49.969Z,63.80
2017-06-18T22:13:17.468Z,63.20
2017-06-18T22:15:44.995Z,63.70
2017-06-18T22:18:12.500Z,64.50
2017-06-18T22:20:39.998Z,64.20
2017-06-18T22:23:07.518Z,64.20
2017-06-18T22:25:35.019Z,64.70
2017-06-18T22:28:02.523Z,64.80
2017-06-18T22:30:30.815Z,64.90
2017-06-18T22:32:58.314Z,64.90
2017-06-18T22:35:25.811Z,66.30
2017-06-18T22:37:53.326Z,65.80
2017-06-18T22:40:20.832Z,65.60
2017-06-18T22:42:48.359Z,65.50
2017-06-18T22:45:15.855Z,66.40
2017-06-18T22:47:43.356Z,65.80
2017-06-18T22:50:10.874Z,65.40
2017-06-18T22:52:38.382Z,65.30
2017-06-18T22:55:05.903Z,64.30
2017-06-18T22:57:33.415Z,67.20
2017-06-18T23:00:00.910Z,68.00
2017-06-18T23:02:28.430Z,67.10
2017-06-18T23:04:55.927Z,67.60
2017-06-18T23:07:23.434Z,66.40
2017-06-18T23:09:50.958Z,67.10
2017-06-18T23:12:18.463Z,67.20
2017-06-18T23:14:45.958Z,66.80
2017-06-18T23:17:14.238Z,65.60
2017-06-18T23:19:41.735Z,65.70
2017-06-18T23:22:09.235Z,66.30
2017-06-18T23:24:37.526Z,68.10
2017-06-18T23:27:05.031Z,68.10
2017-06-18T23:29:32.535Z,67.70
2017-06-18T23:32:00.827Z,68.20
2017-06-18T23:34:28.327Z,68.10
2017-06-18T23:36:55.829Z,68.80
2017-06-18T23:39:23.355Z,68.70
2017-06-18T23:41:50.851Z,69.10
2017-06-18T23:44:18.375Z,69.10
2017-06-18T23:46:45.871Z,69.20
2017-06-18T23:49:13.375Z,68.90
2017-06-18T23:51:40.905Z,68.80
2017-06-18T23:54:08.407Z,69.00
2017-06-18T23:56:35.908Z,68.50
2017-06-18T23:59:03.427Z,69.60
